Nyssa, OR (97913)

4:40 PM MST on February 14, 2016 (GMT -0700)
Owyhee Junction | | Change Station
CLOSE
Current Station
Personal Weather Station
Location: Nyssa, OR
Elevation: 2210 ft
Nearby Weather Stations

Elev 2210 ft 43.79 °N, 117.10 °W | Updated 1 minute ago

Overcast
Overcast
50.3 °F
Feels Like 50.3 °F
N
1.0
Wind Variable Wind from ESE

Today
High -- | Low -- °F
--% Chance of Precip.
Yesterday
High -- | Low -- °F
Precip. -- in
Pressure 30.29 in
Visibility 10.0 miles
Clouds Few 1400 ft
Scattered Clouds 7000 ft
Mostly Cloudy 8000 ft
Dew Point 46 °F
Humidity 86%
Rainfall 0.11 in
Snow Depth Not available.
7:49 AM 6:16 PM
Waxing Crescent, 46% visible
METAR KONO 142253Z AUTO 00000KT 10SM FEW014 SCT070 BKN080 10/06 A3026 RMK AO2 SLP255 T01000056
Pressure 30.29 in
Visibility 10.0 miles
Clouds Few 1400 ft
Scattered Clouds 7000 ft
Mostly Cloudy 8000 ft
Dew Point 46 °F
Humidity 86%
Rainfall 0.11 in
Snow Depth Not available.
7:49 AM 6:16 PM
Waxing Crescent, 46% visible
METAR KONO 142253Z AUTO 00000KT 10SM FEW014 SCT070 BKN080 10/06 A3026 RMK AO2 SLP255 T01000056

10-Day Weather Forecast

Almanac

Astronomy

Feb. 14, 2016 Rise Set
Actual Time
Civil Twilight
Nautical Twilight
Astronomical Twilight
Moon
Length of Visible Light
Length of Day
Tomorrow will be .
, % of the Moon is Illuminated

Today's Extremes

State Highs State Lows

Community

WunderPhotos

Upload Photos

1,892,925 photos uploaded!

WunderBlog® & News

Nearby

Air Quality

  Air Quality AQ Index Pollutant
Not available.

Snow Depth

Station Depth Elevation

Earthquake Activity

City Distance Mag. Time & Date
Minimum magnitude displayed is 2.5.

Coastal Water Temperatures

Place Temperature

Stations

Nearby Weather Stations

Station Location Temp. Windchill Dew Point Humidity Wind Precip. Elev Updated Type
                   

Watches & Warnings

There are currently no watches in effect.